Time;durP1;ratioP1;P1;durP2;ratioP2;P2;SDS_P1;SDS_P2;PMS_P1;PMS_P2;Temp;Humidity;BMP_temperature;BMP_pressure;BME280_temperature;BME280_humidity;BME280_pressure;Samples;Min_cycle;Max_cycle;Signal;HPM_P1;HPM_P2
2023/07/23 00:02:01;;;;;;;3.50;1.80;;;;;;;;;;5111660;28;20028;-58
2023/07/23 00:04:27;;;;;;;3.63;1.93;;;;;;;;;;5109422;28;20077;-59
2023/07/23 00:06:54;;;;;;;3.10;2.07;;;;;;;;;;5109514;28;20482;-59
2023/07/23 00:09:21;;;;;;;2.10;1.57;;;;;;;;;;5109641;28;20900;-58
2023/07/23 00:11:48;;;;;;;3.90;1.63;;;;;;;;;;5110771;28;20028;-58
2023/07/23 00:14:15;;;;;;;1.67;1.40;;;;;;;;;;5114444;28;20027;-58
2023/07/23 00:16:41;;;;;;;1.47;1.00;;;;;;;;;;5113915;28;20055;-59
2023/07/23 00:19:10;;;;;;;2.90;1.70;;;;;;;;;;5114454;28;20427;-58
2023/07/23 00:21:37;;;;;;;2.37;1.53;;;;;;;;;;5113517;28;20028;-59
2023/07/23 00:24:04;;;;;;;1.83;1.17;;;;;;;;;;5112792;28;20035;-58
2023/07/23 00:26:31;;;;;;;2.33;1.43;;;;;;;;;;5108934;28;20031;-58
2023/07/23 00:28:58;;;;;;;2.33;1.73;;;;;;;;;;5109044;28;20032;-58
2023/07/23 00:31:25;;;;;;;2.17;1.33;;;;;;;;;;5109278;28;20024;-58
2023/07/23 00:33:51;;;;;;;7.23;1.73;;;;;;;;;;5109651;28;20024;-59
2023/07/23 00:36:18;;;;;;;3.07;2.07;;;;;;;;;;5114297;28;20070;-58
2023/07/23 00:38:45;;;;;;;2.03;1.60;;;;;;;;;;5113689;28;20026;-59
2023/07/23 00:41:12;;;;;;;2.33;1.67;;;;;;;;;;5114318;28;20031;-58
2023/07/23 00:43:38;;;;;;;2.57;1.77;;;;;;;;;;5114253;28;20024;-58
2023/07/23 00:46:05;;;;;;;2.37;1.43;;;;;;;;;;5113395;28;20486;-58
2023/07/23 00:48:32;;;;;;;3.17;1.67;;;;;;;;;;5108834;28;20039;-58
2023/07/23 00:50:59;;;;;;;2.27;1.67;;;;;;;;;;5108510;28;20023;-58
2023/07/23 00:53:26;;;;;;;2.33;1.80;;;;;;;;;;5108552;28;20031;-59
2023/07/23 00:55:53;;;;;;;2.93;1.80;;;;;;;;;;5108317;28;20027;-59
2023/07/23 00:58:20;;;;;;;5.07;2.37;;;;;;;;;;5114045;28;20024;-59
2023/07/23 01:00:47;;;;;;;5.40;2.83;;;;;;;;;;5113682;28;20391;-58
2023/07/23 01:03:14;;;;;;;6.30;3.17;;;;;;;;;;5113788;28;20062;-58
2023/07/23 01:05:42;;;;;;;3.67;2.57;;;;;;;;;;5113638;28;20015;-59
2023/07/23 01:08:09;;;;;;;6.77;2.70;;;;;;;;;;5112801;28;20026;-58
2023/07/23 01:10:36;;;;;;;6.53;2.77;;;;;;;;;;5108337;28;20157;-58
2023/07/23 01:13:03;;;;;;;4.80;2.83;;;;;;;;;;5107807;28;20024;-58
2023/07/23 01:15:31;;;;;;;6.03;2.67;;;;;;;;;;5087935;28;20016;-58
2023/07/23 01:17:59;;;;;;;3.57;2.20;;;;;;;;;;5087920;28;20031;-58
2023/07/23 01:20:26;;;;;;;5.23;2.43;;;;;;;;;;5067141;28;20044;-58
2023/07/23 01:22:53;;;;;;;5.40;2.40;;;;;;;;;;5109912;28;20481;-58
2023/07/23 01:25:19;;;;;;;30.13;3.47;;;;;;;;;;5113114;28;20020;-58
2023/07/23 01:27:46;;;;;;;4.37;2.13;;;;;;;;;;5113268;28;20045;-58
2023/07/23 01:30:13;;;;;;;9.27;2.37;;;;;;;;;;5112897;28;20027;-58
2023/07/23 01:32:40;;;;;;;3.60;2.33;;;;;;;;;;5108209;28;20102;-58
2023/07/23 01:35:13;;;;;;;8.50;3.27;;;;;;;;;;5107943;28;20035;-58
2023/07/23 01:37:40;;;;;;;11.13;2.90;;;;;;;;;;5108040;28;20077;-58
2023/07/23 01:40:07;;;;;;;4.17;2.90;;;;;;;;;;5107634;28;20044;-58
2023/07/23 01:42:35;;;;;;;4.47;2.93;;;;;;;;;;5111944;28;20046;-58
2023/07/23 01:45:05;;;;;;;3.70;2.73;;;;;;;;;;5112449;28;20023;-58
2023/07/23 01:47:32;;;;;;;4.70;2.60;;;;;;;;;;5112841;28;20026;-58
2023/07/23 01:49:59;;;;;;;4.00;2.53;;;;;;;;;;5112653;28;20023;-58
2023/07/23 01:52:26;;;;;;;3.63;1.90;;;;;;;;;;5112811;28;20094;-58
2023/07/23 01:54:53;;;;;;;5.17;3.30;;;;;;;;;;5107977;28;20088;-58
2023/07/23 01:57:19;;;;;;;3.53;2.60;;;;;;;;;;5107215;28;20029;-58
2023/07/23 01:59:47;;;;;;;1.83;1.37;;;;;;;;;;5107432;28;20042;-59
2023/07/23 02:02:14;;;;;;;4.03;2.50;;;;;;;;;;5106989;28;20119;-58
2023/07/23 02:04:41;;;;;;;4.57;2.70;;;;;;;;;;5111444;28;20522;-58
2023/07/23 02:07:11;;;;;;;2.17;1.77;;;;;;;;;;5112782;28;20466;-58
2023/07/23 02:09:38;;;;;;;3.60;2.17;;;;;;;;;;5112623;28;20430;-58
2023/07/23 02:12:05;;;;;;;10.03;4.10;;;;;;;;;;5112784;28;20031;-59
2023/07/23 02:14:32;;;;;;;5.47;2.97;;;;;;;;;;5112710;28;20036;-58
2023/07/23 02:16:59;;;;;;;4.63;2.33;;;;;;;;;;5108258;28;20032;-58
2023/07/23 02:19:26;;;;;;;3.80;2.40;;;;;;;;;;5106968;28;20039;-58
2023/07/23 02:21:52;;;;;;;3.53;1.93;;;;;;;;;;5107465;28;20050;-58
2023/07/23 02:24:19;;;;;;;4.67;2.67;;;;;;;;;;5107315;28;20066;-58
2023/07/23 02:26:46;;;;;;;4.90;2.50;;;;;;;;;;5114387;28;20048;-58
2023/07/23 02:29:13;;;;;;;5.00;2.40;;;;;;;;;;5116460;28;20463;-58
2023/07/23 02:31:39;;;;;;;3.87;2.60;;;;;;;;;;5116637;28;20363;-58
2023/07/23 02:34:06;;;;;;;4.00;2.73;;;;;;;;;;5116456;28;20470;-58
2023/07/23 02:36:33;;;;;;;3.50;2.40;;;;;;;;;;5116176;28;20101;-58
2023/07/23 02:39:00;;;;;;;3.17;2.37;;;;;;;;;;5112974;28;20032;-58
2023/07/23 02:41:26;;;;;;;6.90;2.07;;;;;;;;;;5111381;28;20352;-58
2023/07/23 02:43:57;;;;;;;6.90;2.63;;;;;;;;;;5111358;28;20035;-59
2023/07/23 02:46:24;;;;;;;2.10;1.30;;;;;;;;;;5111168;28;20382;-58
2023/07/23 02:48:50;;;;;;;3.53;1.63;;;;;;;;;;5113883;28;20065;-59
2023/07/23 02:51:18;;;;;;;1.47;1.30;;;;;;;;;;5116199;28;20024;-58
2023/07/23 02:53:45;;;;;;;2.70;2.03;;;;;;;;;;5115811;28;20024;-58
2023/07/23 02:56:11;;;;;;;3.30;2.43;;;;;;;;;;5116091;28;20016;-58
2023/07/23 02:58:38;;;;;;;3.27;1.97;;;;;;;;;;5116240;28;20047;-58
2023/07/23 03:01:05;;;;;;;4.33;2.83;;;;;;;;;;5113190;28;20028;-58
2023/07/23 03:03:32;;;;;;;3.27;1.30;;;;;;;;;;5110987;28;20023;-58
2023/07/23 03:05:58;;;;;;;2.93;1.40;;;;;;;;;;5110762;28;20019;-58
2023/07/23 03:08:25;;;;;;;20.83;1.50;;;;;;;;;;5110621;28;20424;-59
2023/07/23 03:10:52;;;;;;;4.50;1.60;;;;;;;;;;5112375;28;20055;-58
2023/07/23 03:13:19;;;;;;;1.77;1.10;;;;;;;;;;5115918;28;20035;-59
2023/07/23 03:15:46;;;;;;;2.83;1.40;;;;;;;;;;5115898;28;20094;-58
2023/07/23 03:18:12;;;;;;;1.33;0.90;;;;;;;;;;5115348;28;20081;-59
2023/07/23 03:20:39;;;;;;;3.00;1.13;;;;;;;;;;5115623;28;20049;-58
2023/07/23 03:23:06;;;;;;;1.67;1.00;;;;;;;;;;5113181;28;20031;-59
2023/07/23 03:25:33;;;;;;;4.73;1.53;;;;;;;;;;5110428;28;20118;-58
2023/07/23 03:28:00;;;;;;;2.70;1.37;;;;;;;;;;5110030;28;20032;-59
2023/07/23 03:30:27;;;;;;;5.60;1.70;;;;;;;;;;5110252;28;20031;-58
2023/07/23 03:32:54;;;;;;;3.70;1.33;;;;;;;;;;5111736;28;20024;-58
2023/07/23 03:35:22;;;;;;;2.77;1.70;;;;;;;;;;5115546;28;20366;-59
2023/07/23 03:37:48;;;;;;;3.37;1.77;;;;;;;;;;5115427;28;20072;-58
2023/07/23 03:40:15;;;;;;;3.40;1.70;;;;;;;;;;5115384;28;20027;-58
2023/07/23 03:42:42;;;;;;;8.47;1.30;;;;;;;;;;5115350;28;20026;-58
2023/07/23 03:45:09;;;;;;;3.20;1.33;;;;;;;;;;5113076;28;20051;-59
2023/07/23 03:47:36;;;;;;;3.10;1.30;;;;;;;;;;5110046;28;20046;-59
2023/07/23 03:50:03;;;;;;;1.33;0.90;;;;;;;;;;5110212;28;20110;-58
2023/07/23 03:52:29;;;;;;;1.83;1.20;;;;;;;;;;5109837;28;20020;-58
2023/07/23 03:54:56;;;;;;;3.57;1.77;;;;;;;;;;5110772;28;20122;-58
2023/07/23 03:57:23;;;;;;;3.10;1.63;;;;;;;;;;5115003;28;20032;-58
2023/07/23 03:59:50;;;;;;;3.03;1.23;;;;;;;;;;5114770;28;20032;-58
2023/07/23 04:02:16;;;;;;;2.27;1.30;;;;;;;;;;5114581;28;20080;-58
2023/07/23 04:04:44;;;;;;;1.90;1.47;;;;;;;;;;5114969;28;20016;-58
2023/07/23 04:07:10;;;;;;;2.30;1.50;;;;;;;;;;5113946;28;20027;-59
2023/07/23 04:09:37;;;;;;;2.43;1.43;;;;;;;;;;5109423;28;20103;-58
2023/07/23 04:12:04;;;;;;;1.33;0.90;;;;;;;;;;5109469;28;20028;-58
2023/07/23 04:14:31;;;;;;;4.40;1.83;;;;;;;;;;5109574;28;20031;-58
2023/07/23 04:16:57;;;;;;;1.57;1.07;;;;;;;;;;5109535;28;20034;-58
2023/07/23 04:19:24;;;;;;;2.37;1.07;;;;;;;;;;5114071;28;20023;-59
2023/07/23 04:21:51;;;;;;;1.33;1.00;;;;;;;;;;5114613;28;20114;-59
2023/07/23 04:24:18;;;;;;;2.73;1.50;;;;;;;;;;5114580;28;20077;-58
2023/07/23 04:26:44;;;;;;;1.17;0.90;;;;;;;;;;5114488;28;20095;-58
2023/07/23 04:29:11;;;;;;;2.93;1.67;;;;;;;;;;5114196;28;20400;-58
2023/07/23 04:31:38;;;;;;;1.33;0.80;;;;;;;;;;5109148;28;20035;-59
2023/07/23 04:34:05;;;;;;;3.23;1.40;;;;;;;;;;5109032;28;20334;-58
2023/07/23 04:36:31;;;;;;;2.27;1.57;;;;;;;;;;5108364;28;20024;-58
2023/07/23 04:39:00;;;;;;;1.73;1.13;;;;;;;;;;5108819;28;20079;-59
2023/07/23 04:41:27;;;;;;;2.27;1.00;;;;;;;;;;5113986;28;20051;-58
2023/07/23 04:43:54;;;;;;;1.80;1.07;;;;;;;;;;5114186;28;20538;-58
2023/07/23 04:46:21;;;;;;;2.60;2.10;;;;;;;;;;5114099;28;20032;-58
2023/07/23 04:48:47;;;;;;;1.23;1.10;;;;;;;;;;5113455;28;20023;-58
2023/07/23 04:51:14;;;;;;;1.00;0.90;;;;;;;;;;5113605;28;20032;-59
2023/07/23 04:53:41;;;;;;;1.97;1.20;;;;;;;;;;5108172;28;20057;-58
2023/07/23 04:56:08;;;;;;;1.93;1.50;;;;;;;;;;5108759;28;20587;-58
2023/07/23 04:58:34;;;;;;;1.73;1.20;;;;;;;;;;5108759;28;20028;-57
2023/07/23 05:01:11;;;;;;;1.90;1.20;;;;;;;;;;5108475;28;20085;-59
2023/07/23 05:03:38;;;;;;;2.93;1.07;;;;;;;;;;5113200;28;20020;-58
2023/07/23 05:06:06;;;;;;;2.57;1.60;;;;;;;;;;5113779;28;20022;-57
2023/07/23 05:08:33;;;;;;;1.90;0.83;;;;;;;;;;5113332;28;20030;-58
2023/07/23 05:11:01;;;;;;;2.73;1.53;;;;;;;;;;5113655;28;20012;-58
2023/07/23 05:13:28;;;;;;;0.93;0.83;;;;;;;;;;5113595;28;20489;-58
2023/07/23 05:15:55;;;;;;;1.47;1.00;;;;;;;;;;5108423;28;20060;-58
2023/07/23 05:18:23;;;;;;;1.97;1.33;;;;;;;;;;5108246;28;20050;-58
2023/07/23 05:20:50;;;;;;;0.97;0.83;;;;;;;;;;5108044;28;20553;-58
2023/07/23 05:23:17;;;;;;;5.93;1.73;;;;;;;;;;5107841;28;20051;-58
2023/07/23 05:25:45;;;;;;;1.00;0.80;;;;;;;;;;5112192;28;20446;-58
2023/07/23 05:28:12;;;;;;;2.07;0.87;;;;;;;;;;5113256;28;20451;-57
2023/07/23 05:30:39;;;;;;;1.57;1.03;;;;;;;;;;5113379;28;20530;-57
2023/07/23 05:33:06;;;;;;;2.60;1.07;;;;;;;;;;5113302;28;20030;-57
2023/07/23 05:35:32;;;;;;;2.20;1.20;;;;;;;;;;5113246;28;20546;-57
2023/07/23 05:37:59;;;;;;;0.87;0.63;;;;;;;;;;5108749;28;20022;-58
2023/07/23 05:40:26;;;;;;;1.43;0.80;;;;;;;;;;5107272;28;20028;-58
2023/07/23 05:42:57;;;;;;;1.83;1.33;;;;;;;;;;5108081;28;20024;-57
2023/07/23 05:45:24;;;;;;;2.20;1.33;;;;;;;;;;5107748;28;20424;-58
2023/07/23 05:47:51;;;;;;;1.20;1.00;;;;;;;;;;5111650;28;20494;-57
2023/07/23 05:50:17;;;;;;;3.80;1.53;;;;;;;;;;5113095;28;20539;-58
2023/07/23 05:52:44;;;;;;;0.80;0.60;;;;;;;;;;5112783;28;20168;-58
2023/07/23 05:55:11;;;;;;;3.67;1.37;;;;;;;;;;5112927;28;20378;-58
2023/07/23 05:57:38;;;;;;;2.40;1.20;;;;;;;;;;5112701;28;20512;-58
2023/07/23 06:00:05;;;;;;;4.57;1.37;;;;;;;;;;5108057;28;20124;-58
2023/07/23 06:02:32;;;;;;;1.50;1.00;;;;;;;;;;5107790;28;20028;-57
2023/07/23 06:04:59;;;;;;;0.73;0.50;;;;;;;;;;5107789;28;20474;-58
2023/07/23 06:07:25;;;;;;;0.47;0.30;;;;;;;;;;5107773;28;20023;-58
2023/07/23 06:09:52;;;;;;;0.90;0.57;;;;;;;;;;5110836;28;20023;-58
2023/07/23 06:12:19;;;;;;;1.47;0.60;;;;;;;;;;5112914;28;20085;-58
2023/07/23 06:14:46;;;;;;;1.47;0.60;;;;;;;;;;5112455;28;20032;-58
2023/07/23 06:17:12;;;;;;;1.17;0.60;;;;;;;;;;5115653;28;20030;-58
2023/07/23 06:19:39;;;;;;;0.47;0.33;;;;;;;;;;5123800;28;20036;-58
2023/07/23 06:22:06;;;;;;;1.50;0.47;;;;;;;;;;5116275;28;20046;-59
2023/07/23 06:24:34;;;;;;;1.37;0.83;;;;;;;;;;5107949;28;20034;-59
2023/07/23 06:27:01;;;;;;;0.77;0.43;;;;;;;;;;5126661;28;20050;-58
2023/07/23 06:29:28;;;;;;;1.20;0.63;;;;;;;;;;5128231;28;20023;-58
2023/07/23 06:31:57;;;;;;;1.87;1.13;;;;;;;;;;5130308;28;20386;-58
2023/07/23 06:34:23;;;;;;;0.63;0.53;;;;;;;;;;5133224;28;20019;-58
2023/07/23 06:36:50;;;;;;;2.67;0.93;;;;;;;;;;5132986;28;20043;-58
2023/07/23 06:39:19;;;;;;;0.50;0.33;;;;;;;;;;5132801;28;20063;-58
2023/07/23 06:41:45;;;;;;;0.57;0.33;;;;;;;;;;5133027;28;20031;-58
2023/07/23 06:44:12;;;;;;;0.47;0.33;;;;;;;;;;5130113;28;20054;-58
2023/07/23 06:46:39;;;;;;;1.60;0.97;;;;;;;;;;5127413;28;20377;-58
2023/07/23 06:49:06;;;;;;;8.17;0.60;;;;;;;;;;5127519;28;20020;-58
2023/07/23 06:51:32;;;;;;;0.93;0.60;;;;;;;;;;5127661;28;20042;-58
2023/07/23 06:53:59;;;;;;;1.27;0.60;;;;;;;;;;5110020;28;20035;-58
2023/07/23 06:56:26;;;;;;;3.93;0.60;;;;;;;;;;5112376;28;20043;-59
2023/07/23 06:58:53;;;;;;;1.00;0.73;;;;;;;;;;5112293;28;20027;-59
2023/07/23 07:01:21;;;;;;;0.67;0.50;;;;;;;;;;5112410;28;20019;-58
2023/07/23 07:03:47;;;;;;;1.43;0.80;;;;;;;;;;5111731;28;20023;-58
2023/07/23 07:06:15;;;;;;;1.03;0.50;;;;;;;;;;5109724;28;20023;-58
2023/07/23 07:08:43;;;;;;;2.47;0.77;;;;;;;;;;5107035;28;20031;-58
2023/07/23 07:11:10;;;;;;;0.63;0.50;;;;;;;;;;5107685;28;20028;-58
2023/07/23 07:13:38;;;;;;;4.40;1.33;;;;;;;;;;5110763;28;20042;-58
2023/07/23 07:16:05;;;;;;;0.97;0.60;;;;;;;;;;5112393;28;20038;-58
2023/07/23 07:18:32;;;;;;;1.57;0.53;;;;;;;;;;5115879;28;20103;-58
2023/07/23 07:21:00;;;;;;;2.30;0.93;;;;;;;;;;5115343;28;20038;-58
2023/07/23 07:23:30;;;;;;;15.17;1.10;;;;;;;;;;5115533;28;20023;-58
2023/07/23 07:25:58;;;;;;;5.80;0.80;;;;;;;;;;5115644;28;20062;-58
2023/07/23 07:28:28;;;;;;;1.03;0.60;;;;;;;;;;5113418;28;20055;-58
2023/07/23 07:30:58;;;;;;;1.90;1.10;;;;;;;;;;5110581;28;20027;-58
2023/07/23 07:33:25;;;;;;;0.67;0.57;;;;;;;;;;5110146;28;20072;-58
2023/07/23 07:35:58;;;;;;;3.43;0.50;;;;;;;;;;5110328;28;20031;-58
2023/07/23 07:38:26;;;;;;;1.33;0.90;;;;;;;;;;5112008;28;20028;-57
2023/07/23 07:40:53;;;;;;;0.83;0.70;;;;;;;;;;5115163;28;20081;-58
2023/07/23 07:43:20;;;;;;;0.33;0.30;;;;;;;;;;5115351;28;20121;-58
2023/07/23 07:45:53;;;;;;;7.40;0.60;;;;;;;;;;5115399;28;20467;-58
2023/07/23 07:48:20;;;;;;;1.53;0.70;;;;;;;;;;5114868;28;20067;-58
2023/07/23 07:50:48;;;;;;;2.40;1.27;;;;;;;;;;5112810;28;21470;-58
2023/07/23 07:53:15;;;;;;;2.73;0.97;;;;;;;;;;5109632;28;20111;-58
2023/07/23 07:55:43;;;;;;;2.53;1.00;;;;;;;;;;5109720;28;20475;-58
2023/07/23 07:58:14;;;;;;;0.40;0.40;;;;;;;;;;5109657;28;20083;-59
2023/07/23 08:00:41;;;;;;;1.57;1.03;;;;;;;;;;5111486;28;20036;-58
2023/07/23 08:03:09;;;;;;;0.70;0.47;;;;;;;;;;5114674;28;20020;-57
2023/07/23 08:05:36;;;;;;;2.03;0.70;;;;;;;;;;5114835;28;20027;-58
2023/07/23 08:08:04;;;;;;;0.53;0.40;;;;;;;;;;5114902;28;20080;-58
2023/07/23 08:10:32;;;;;;;5.40;1.37;;;;;;;;;;5114696;28;20080;-58
2023/07/23 08:12:59;;;;;;;0.30;0.30;;;;;;;;;;5112626;28;20077;-58
2023/07/23 08:15:25;;;;;;;0.67;0.63;;;;;;;;;;5109322;28;20042;-58
2023/07/23 08:17:52;;;;;;;0.60;0.40;;;;;;;;;;5109359;28;20024;-58
2023/07/23 08:20:19;;;;;;;2.93;0.97;;;;;;;;;;5109251;28;20509;-58
2023/07/23 08:22:46;;;;;;;0.83;0.57;;;;;;;;;;5110014;28;20541;-58
2023/07/23 08:25:13;;;;;;;1.03;0.67;;;;;;;;;;5114578;28;20481;-58
2023/07/23 08:27:41;;;;;;;8.30;0.53;;;;;;;;;;5114724;28;20488;-58
2023/07/23 08:30:08;;;;;;;5.33;1.00;;;;;;;;;;5114460;28;20039;-58
2023/07/23 08:32:35;;;;;;;1.93;0.77;;;;;;;;;;5114207;28;20078;-58
2023/07/23 08:35:02;;;;;;;2.73;0.83;;;;;;;;;;5112306;28;20483;-58
2023/07/23 08:37:30;;;;;;;2.20;1.00;;;;;;;;;;5108840;28;20483;-59
2023/07/23 08:39:57;;;;;;;0.50;0.43;;;;;;;;;;5109161;28;20094;-58
2023/07/23 08:42:23;;;;;;;0.77;0.63;;;;;;;;;;5108943;28;20044;-58
2023/07/23 08:44:53;;;;;;;1.33;0.57;;;;;;;;;;5109665;28;20034;-58
2023/07/23 08:47:22;;;;;;;1.83;0.70;;;;;;;;;;5114160;28;20031;-58
2023/07/23 08:49:48;;;;;;;0.30;0.30;;;;;;;;;;5113863;28;20030;-58
2023/07/23 08:52:16;;;;;;;0.93;0.70;;;;;;;;;;5113702;28;20020;-58
2023/07/23 08:54:43;;;;;;;1.30;0.70;;;;;;;;;;5114008;28;20032;-58
2023/07/23 08:57:10;;;;;;;8.57;0.57;;;;;;;;;;5112750;28;20027;-58
2023/07/23 08:59:37;;;;;;;4.23;1.13;;;;;;;;;;5108584;28;20071;-58
2023/07/23 09:02:04;;;;;;;1.03;0.30;;;;;;;;;;5108573;28;20019;-58
2023/07/23 09:04:30;;;;;;;3.20;1.00;;;;;;;;;;5108802;28;20023;-58
2023/07/23 09:06:59;;;;;;;0.60;0.33;;;;;;;;;;5108724;28;20024;-58
2023/07/23 09:09:26;;;;;;;2.30;0.87;;;;;;;;;;5113362;28;20031;-58
2023/07/23 09:11:53;;;;;;;1.10;0.40;;;;;;;;;;5113801;28;20502;-58
2023/07/23 09:14:19;;;;;;;0.77;0.63;;;;;;;;;;5113593;28;20030;-58
2023/07/23 09:16:48;;;;;;;4.80;1.00;;;;;;;;;;5113586;28;20106;-57
2023/07/23 09:19:21;;;;;;;1.80;0.60;;;;;;;;;;5112640;28;20486;-58
2023/07/23 09:21:48;;;;;;;1.37;0.67;;;;;;;;;;5107770;28;20027;-58
2023/07/23 09:24:18;;;;;;;0.40;0.40;;;;;;;;;;5108091;28;20107;-58
2023/07/23 09:26:46;;;;;;;3.03;0.57;;;;;;;;;;5108215;28;20103;-58
2023/07/23 09:29:13;;;;;;;4.30;0.70;;;;;;;;;;5108318;28;20136;-58
2023/07/23 09:31:44;;;;;;;0.93;0.70;;;;;;;;;;5113314;28;20031;-58
2023/07/23 09:34:11;;;;;;;0.77;0.57;;;;;;;;;;5113113;28;20463;-58
2023/07/23 09:36:38;;;;;;;3.27;1.07;;;;;;;;;;5112944;28;20024;-58
2023/07/23 09:39:06;;;;;;;8.20;1.57;;;;;;;;;;5113181;28;20023;-58
2023/07/23 09:41:34;;;;;;;0.33;0.27;;;;;;;;;;5112111;28;20102;-58
2023/07/23 09:44:02;;;;;;;1.33;0.60;;;;;;;;;;5107894;28;20080;-58
2023/07/23 09:46:29;;;;;;;6.63;0.77;;;;;;;;;;5107739;28;20028;-58
2023/07/23 09:48:55;;;;;;;3.43;0.33;;;;;;;;;;5107928;28;20046;-58
2023/07/23 09:51:23;;;;;;;0.97;0.60;;;;;;;;;;5108101;28;20026;-57
2023/07/23 09:53:50;;;;;;;0.60;0.50;;;;;;;;;;5112717;28;20027;-58
2023/07/23 09:56:17;;;;;;;0.23;0.20;;;;;;;;;;5112858;28;20427;-58
2023/07/23 09:58:49;;;;;;;12.23;0.63;;;;;;;;;;5112506;28;20034;-57
2023/07/23 10:01:16;;;;;;;6.73;0.87;;;;;;;;;;5112600;28;20035;-58
2023/07/23 10:03:44;;;;;;;0.67;0.33;;;;;;;;;;5112181;28;20020;-58
2023/07/23 10:06:12;;;;;;;0.40;0.40;;;;;;;;;;5107337;28;20039;-58
2023/07/23 10:08:42;;;;;;;2.00;1.10;;;;;;;;;;5107425;28;20485;-58
2023/07/23 10:11:12;;;;;;;0.77;0.47;;;;;;;;;;5107450;28;20042;-58
2023/07/23 10:13:40;;;;;;;1.33;0.50;;;;;;;;;;5107444;28;20023;-58
2023/07/23 10:16:09;;;;;;;0.47;0.30;;;;;;;;;;5112670;28;20015;-58
2023/07/23 10:18:38;;;;;;;11.23;0.63;;;;;;;;;;5112795;28;20016;-58
2023/07/23 10:21:06;;;;;;;0.47;0.47;;;;;;;;;;5112330;28;20031;-58
2023/07/23 10:23:33;;;;;;;1.00;0.37;;;;;;;;;;5112835;28;20020;-57
2023/07/23 10:26:22;;;;;;;0.23;0.23;;;;;;;;;;5111995;28;20016;-58
2023/07/23 10:28:50;;;;;;;0.20;0.20;;;;;;;;;;5107173;28;20046;-57
2023/07/23 10:31:20;;;;;;;5.23;1.77;;;;;;;;;;5107118;28;20024;-58
2023/07/23 10:33:49;;;;;;;2.40;0.70;;;;;;;;;;5107191;28;20022;-58
2023/07/23 10:36:16;;;;;;;0.93;0.37;;;;;;;;;;5108193;28;20044;-58
2023/07/23 10:38:43;;;;;;;0.50;0.33;;;;;;;;;;5112571;28;20023;-58
2023/07/23 10:41:10;;;;;;;0.33;0.33;;;;;;;;;;5112445;28;20032;-58
2023/07/23 10:43:44;;;;;;;1.90;0.97;;;;;;;;;;5112490;28;20099;-58
2023/07/23 10:46:12;;;;;;;0.60;0.40;;;;;;;;;;5112845;28;20475;-58
2023/07/23 10:48:39;;;;;;;0.53;0.23;;;;;;;;;;5114559;28;20253;-57
2023/07/23 10:51:09;;;;;;;0.83;0.47;;;;;;;;;;5111046;28;20539;-57
2023/07/23 10:53:40;;;;;;;0.27;0.23;;;;;;;;;;5110909;28;20088;-58
2023/07/23 10:56:27;;;;;;;2.27;0.60;;;;;;;;;;5111053;28;20402;-59
2023/07/23 10:59:08;;;;;;;0.87;0.37;;;;;;;;;;5112421;28;20038;-58
2023/07/23 11:01:35;;;;;;;0.30;0.20;;;;;;;;;;5116067;28;20023;-58
2023/07/23 11:04:07;;;;;;;0.60;0.27;;;;;;;;;;5116193;28;20027;-58
2023/07/23 11:06:34;;;;;;;0.13;0.13;;;;;;;;;;5115994;28;20489;-58
2023/07/23 11:09:05;;;;;;;1.67;0.73;;;;;;;;;;5115739;28;20024;-58
2023/07/23 11:11:35;;;;;;;4.37;0.33;;;;;;;;;;5113400;28;20024;-58
2023/07/23 11:14:17;;;;;;;13.83;0.53;;;;;;;;;;5110689;28;20073;-58
2023/07/23 11:16:45;;;;;;;0.10;0.10;;;;;;;;;;5110635;28;20463;-57
2023/07/23 11:19:12;;;;;;;1.43;0.63;;;;;;;;;;5110044;28;20467;-58
2023/07/23 11:21:49;;;;;;;0.77;0.33;;;;;;;;;;5113258;28;20027;-58
2023/07/23 11:24:16;;;;;;;0.50;0.33;;;;;;;;;;5115539;28;20111;-58
2023/07/23 11:26:43;;;;;;;1.73;0.53;;;;;;;;;;5115707;28;20423;-58
2023/07/23 11:29:10;;;;;;;0.20;0.20;;;;;;;;;;5115731;28;20076;-58
2023/07/23 11:31:37;;;;;;;0.43;0.20;;;;;;;;;;5115502;28;20479;-58
2023/07/23 11:34:05;;;;;;;0.40;0.27;;;;;;;;;;5111734;28;20745;-58
2023/07/23 11:36:33;;;;;;;0.80;0.23;;;;;;;;;;5110458;28;20042;-58
2023/07/23 11:39:00;;;;;;;3.10;0.43;;;;;;;;;;5109947;28;20024;-58
2023/07/23 11:41:28;;;;;;;0.13;0.13;;;;;;;;;;5110199;28;20055;-58
2023/07/23 11:44:00;;;;;;;3.50;0.37;;;;;;;;;;5112877;28;20091;-58
2023/07/23 11:46:28;;;;;;;1.07;0.30;;;;;;;;;;5115236;28;20028;-58
2023/07/23 11:48:55;;;;;;;0.60;0.37;;;;;;;;;;5115159;28;20023;-57
2023/07/23 11:51:25;;;;;;;4.73;0.70;;;;;;;;;;5115314;28;20440;-58
2023/07/23 11:53:52;;;;;;;12.00;0.83;;;;;;;;;;5115161;28;20119;-58
2023/07/23 11:56:24;;;;;;;0.30;0.20;;;;;;;;;;5111794;28;20065;-58
2023/07/23 11:58:51;;;;;;;1.53;0.30;;;;;;;;;;5108163;28;20551;-58
2023/07/23 12:01:18;;;;;;;3.97;0.37;;;;;;;;;;5109390;28;20075;-59
2023/07/23 12:03:46;;;;;;;0.20;0.17;;;;;;;;;;5109855;28;20424;-58
2023/07/23 12:06:14;;;;;;;0.67;0.43;;;;;;;;;;5112416;28;20028;-58
2023/07/23 12:08:42;;;;;;;0.20;0.10;;;;;;;;;;5114793;28;20031;-58
2023/07/23 12:11:10;;;;;;;0.00;0.00;;;;;;;;;;5114945;28;20051;-58
2023/07/23 12:13:42;;;;;;;0.20;0.20;;;;;;;;;;5114632;28;20081;-58
2023/07/23 12:16:15;;;;;;;6.07;0.70;;;;;;;;;;5114140;28;20023;-58
2023/07/23 12:18:48;;;;;;;1.93;0.30;;;;;;;;;;5110767;28;20130;-57
2023/07/23 12:21:20;;;;;;;0.60;0.37;;;;;;;;;;5109220;28;20394;-58
2023/07/23 12:23:47;;;;;;;0.67;0.40;;;;;;;;;;5109252;28;20352;-58
2023/07/23 12:26:14;;;;;;;0.53;0.40;;;;;;;;;;5109367;28;20019;-58
2023/07/23 12:28:40;;;;;;;3.07;0.70;;;;;;;;;;5112313;28;20513;-58
2023/07/23 12:31:07;;;;;;;0.60;0.40;;;;;;;;;;5114370;28;20470;-58
2023/07/23 12:33:34;;;;;;;0.90;0.40;;;;;;;;;;5114572;28;20031;-58
2023/07/23 12:36:01;;;;;;;5.50;1.17;;;;;;;;;;5114326;28;20489;-58
2023/07/23 12:38:28;;;;;;;1.27;0.67;;;;;;;;;;5114376;28;20030;-57
2023/07/23 12:40:54;;;;;;;2.07;1.00;;;;;;;;;;5110526;28;20036;-58
2023/07/23 12:43:21;;;;;;;1.47;0.77;;;;;;;;;;5109042;28;20039;-58
2023/07/23 12:45:48;;;;;;;1.43;0.73;;;;;;;;;;5108482;28;20034;-58
2023/07/23 12:48:14;;;;;;;2.07;1.00;;;;;;;;;;5108790;28;20023;-58
2023/07/23 12:50:41;;;;;;;4.63;0.70;;;;;;;;;;5111782;28;20031;-58
2023/07/23 12:53:08;;;;;;;8.03;1.17;;;;;;;;;;5113859;28;20513;-58
2023/07/23 12:55:35;;;;;;;3.13;0.77;;;;;;;;;;5114016;28;20538;-58
2023/07/23 12:58:01;;;;;;;2.77;1.07;;;;;;;;;;5113957;28;20027;-58
2023/07/23 13:00:28;;;;;;;1.30;0.97;;;;;;;;;;5113630;28;20377;-58
2023/07/23 13:02:55;;;;;;;1.30;0.63;;;;;;;;;;5110686;28;20498;-58
2023/07/23 13:05:22;;;;;;;5.80;1.40;;;;;;;;;;5108466;28;20027;-58
2023/07/23 13:07:48;;;;;;;3.90;1.33;;;;;;;;;;5108572;28;20098;-58
2023/07/23 13:10:15;;;;;;;1.73;1.23;;;;;;;;;;5108114;28;20490;-57
2023/07/23 13:12:42;;;;;;;1.90;1.17;;;;;;;;;;5111090;28;20023;-58
2023/07/23 13:15:09;;;;;;;0.70;0.60;;;;;;;;;;5113542;28;20023;-58
2023/07/23 13:17:36;;;;;;;0.57;0.50;;;;;;;;;;5113531;28;20076;-58
2023/07/23 13:20:03;;;;;;;0.93;0.53;;;;;;;;;;5113463;28;20420;-58
2023/07/23 13:22:29;;;;;;;0.67;0.53;;;;;;;;;;5113201;28;20039;-58
2023/07/23 13:24:56;;;;;;;0.70;0.40;;;;;;;;;;5110723;28;20046;-57
2023/07/23 13:27:23;;;;;;;2.07;0.70;;;;;;;;;;5108339;28;20023;-58
2023/07/23 13:29:50;;;;;;;0.53;0.30;;;;;;;;;;5107972;28;20027;-58
2023/07/23 13:32:16;;;;;;;0.97;0.70;;;;;;;;;;5108151;28;20023;-58
2023/07/23 13:34:43;;;;;;;1.13;0.70;;;;;;;;;;5109830;28;20073;-58
2023/07/23 13:37:10;;;;;;;0.53;0.30;;;;;;;;;;5113310;28;20024;-57
2023/07/23 13:39:37;;;;;;;12.73;0.90;;;;;;;;;;5113011;28;20023;-58
2023/07/23 13:42:03;;;;;;;0.40;0.40;;;;;;;;;;5113201;28;20368;-58
2023/07/23 13:44:31;;;;;;;2.03;1.07;;;;;;;;;;5113264;28;20016;-57
2023/07/23 13:46:58;;;;;;;1.33;0.50;;;;;;;;;;5110503;28;20518;-58
2023/07/23 13:49:25;;;;;;;0.57;0.57;;;;;;;;;;5107935;28;20031;-57
2023/07/23 13:51:52;;;;;;;0.80;0.60;;;;;;;;;;5107270;28;20107;-58
2023/07/23 13:54:19;;;;;;;5.00;1.03;;;;;;;;;;5107552;28;20058;-58
2023/07/23 13:56:45;;;;;;;6.37;0.90;;;;;;;;;;5109357;28;20473;-58
2023/07/23 13:59:13;;;;;;;1.03;0.40;;;;;;;;;;5112738;28;20031;-57
2023/07/23 14:01:40;;;;;;;0.87;0.73;;;;;;;;;;5113021;28;20024;-58
2023/07/23 14:04:07;;;;;;;1.43;0.63;;;;;;;;;;5112875;28;20429;-58
2023/07/23 14:06:34;;;;;;;0.77;0.50;;;;;;;;;;5112418;28;20351;-58
2023/07/23 14:09:01;;;;;;;14.10;1.27;;;;;;;;;;5110782;28;20474;-58
2023/07/23 14:11:28;;;;;;;0.60;0.53;;;;;;;;;;5107541;28;20019;-58
2023/07/23 14:13:55;;;;;;;1.47;1.00;;;;;;;;;;5107296;28;20031;-57
2023/07/23 14:16:21;;;;;;;2.90;1.80;;;;;;;;;;5107234;28;20355;-58
2023/07/23 14:18:48;;;;;;;1.80;1.20;;;;;;;;;;5108824;28;20047;-57
2023/07/23 14:21:15;;;;;;;4.07;1.97;;;;;;;;;;5113576;28;20359;-58
2023/07/23 14:23:42;;;;;;;5.07;3.00;;;;;;;;;;5116549;28;20028;-58
2023/07/23 14:26:09;;;;;;;5.30;2.50;;;;;;;;;;5117001;28;20034;-57
2023/07/23 14:28:36;;;;;;;3.50;2.10;;;;;;;;;;5116844;28;20034;-58
2023/07/23 14:31:04;;;;;;;2.10;1.53;;;;;;;;;;5115044;28;20051;-57
2023/07/23 14:33:31;;;;;;;3.67;2.03;;;;;;;;;;5111311;28;20497;-58
2023/07/23 14:35:59;;;;;;;8.47;1.60;;;;;;;;;;5111524;28;20027;-58
2023/07/23 14:38:26;;;;;;;0.70;0.67;;;;;;;;;;5110838;28;20554;-58
2023/07/23 14:40:53;;;;;;;1.23;0.90;;;;;;;;;;5111980;28;20032;-58
2023/07/23 14:43:20;;;;;;;3.70;1.40;;;;;;;;;;5116537;28;20043;-57
2023/07/23 14:45:47;;;;;;;3.37;1.33;;;;;;;;;;5116606;28;20030;-57